Time;durP1;ratioP1;P1;durP2;ratioP2;P2;SDS_P1;SDS_P2;PMS_P1;PMS_P2;Temp;Humidity;BMP_temperature;BMP_pressure;BME280_temperature;BME280_humidity;BME280_pressure;Samples;Min_cycle;Max_cycle;Signal;HPM_P1;HPM_P2
2024/01/09 00:03:23;;;;;;;;;;;;;;;-6.94;100.00;96346.06;10556090;27;1958;-66
2024/01/09 00:08:25;;;;;;;;;;;;;;;-7.10;100.00;96337.13;10553320;28;2223;-67
2024/01/09 00:13:28;;;;;;;;;;;;;;;-7.20;100.00;96333.78;10555478;28;1915;-69
2024/01/09 00:18:31;;;;;;;;;;;;;;;-7.32;100.00;96340.19;10534811;28;2133;-68
2024/01/09 00:23:33;;;;;;;;;;;;;;;-7.34;100.00;96339.53;10548280;28;2031;-68
2024/01/09 00:28:37;;;;;;;;;;;;;;;-7.39;100.00;96336.53;10549951;28;3140;-65
2024/01/09 00:33:40;;;;;;;;;;;;;;;-7.55;100.00;96346.84;10546722;27;2216;-65
2024/01/09 00:38:42;;;;;;;;;;;;;;;-7.59;100.00;96337.66;10549038;28;2037;-67
2024/01/09 00:43:45;;;;;;;;;;;;;;;-7.60;100.00;96328.16;10553427;28;2028;-66
2024/01/09 00:48:50;;;;;;;;;;;;;;;-7.64;100.00;96323.22;10554534;28;1902;-72
2024/01/09 00:53:54;;;;;;;;;;;;;;;-7.63;100.00;96324.91;10549600;28;1971;-68
2024/01/09 00:58:57;;;;;;;;;;;;;;;-7.62;100.00;96331.75;10551868;28;1883;-72
2024/01/09 01:03:59;;;;;;;;;;;;;;;-7.58;100.00;96336.66;10561148;28;1918;-65
2024/01/09 01:09:02;;;;;;;;;;;;;;;-7.51;100.00;96327.28;10551058;28;1928;-66
2024/01/09 01:14:05;;;;;;;;;;;;;;;-7.43;100.00;96330.00;10552432;28;2053;-65
2024/01/09 01:19:10;;;;;;;;;;;;;;;-7.40;100.00;96333.09;10546600;28;2091;-67
2024/01/09 01:24:14;;;;;;;;;;;;;;;-7.33;100.00;96335.94;10559330;28;2941;-67
2024/01/09 01:29:19;;;;;;;;;;;;;;;-7.26;100.00;96336.97;10559580;28;1979;-66
2024/01/09 01:34:22;;;;;;;;;;;;;;;-7.31;100.00;96336.63;10538780;28;2088;-66
2024/01/09 01:39:25;;;;;;;;;;;;;;;-7.29;100.00;96346.94;10543257;28;1985;-65
2024/01/09 01:44:27;;;;;;;;;;;;;;;-7.24;100.00;96340.28;10560844;28;1928;-67
2024/01/09 01:49:30;;;;;;;;;;;;;;;-7.26;100.00;96342.22;10559970;28;2079;-66
2024/01/09 01:54:33;;;;;;;;;;;;;;;-7.27;100.00;96345.78;10556089;28;2148;-67
2024/01/09 01:59:37;;;;;;;;;;;;;;;-7.26;100.00;96342.22;10559611;28;2057;-67
2024/01/09 02:04:40;;;;;;;;;;;;;;;-7.26;100.00;96333.56;10563095;28;2144;-67
2024/01/09 02:09:43;;;;;;;;;;;;;;;-7.18;100.00;96334.47;10564184;27;1931;-65
2024/01/09 02:14:46;;;;;;;;;;;;;;;-7.18;100.00;96336.25;10550215;28;2018;-67
2024/01/09 02:19:49;;;;;;;;;;;;;;;-7.18;100.00;96336.25;10556710;27;2359;-66
2024/01/09 02:24:51;;;;;;;;;;;;;;;-7.21;100.00;96329.53;10565499;27;1993;-66
2024/01/09 02:29:56;;;;;;;;;;;;;;;-7.19;100.00;96325.00;10547848;28;2563;-66
2024/01/09 02:35:00;;;;;;;;;;;;;;;-7.11;100.00;96330.28;10553236;28;2050;-65
2024/01/09 02:40:03;;;;;;;;;;;;;;;-7.04;100.00;96327.06;10552483;28;2099;-66
2024/01/09 02:45:06;;;;;;;;;;;;;;;-7.09;100.00;96323.09;10558092;28;2076;-67
2024/01/09 02:50:09;;;;;;;;;;;;;;;-7.10;100.00;96316.25;10550690;27;1906;-67
2024/01/09 02:55:12;;;;;;;;;;;;;;;-7.05;100.00;96313.19;10538626;28;1925;-66
2024/01/09 03:00:15;;;;;;;;;;;;;;;-7.08;100.00;96303.00;10553325;28;2057;-66
2024/01/09 03:05:17;;;;;;;;;;;;;;;-7.23;100.00;96310.56;10554627;28;2073;-67
2024/01/09 03:10:20;;;;;;;;;;;;;;;-7.26;100.00;96310.84;10548736;28;2162;-66
2024/01/09 03:15:23;;;;;;;;;;;;;;;-7.28;100.00;96307.59;10553997;28;2324;-66
2024/01/09 03:20:25;;;;;;;;;;;;;;;-7.22;100.00;96311.41;10540688;28;2061;-66
2024/01/09 03:25:28;;;;;;;;;;;;;;;-7.22;100.00;96311.41;10551384;28;2192;-67
2024/01/09 03:30:30;;;;;;;;;;;;;;;-7.12;100.00;96320.81;10556130;28;1957;-66
2024/01/09 03:35:34;;;;;;;;;;;;;;;-7.22;100.00;96314.00;10554628;28;2179;-66
2024/01/09 03:40:37;;;;;;;;;;;;;;;-7.21;100.00;96307.81;10550909;28;1885;-67
2024/01/09 03:45:40;;;;;;;;;;;;;;;-7.24;100.00;96306.31;10536282;27;2392;-66
2024/01/09 03:50:43;;;;;;;;;;;;;;;-7.28;100.00;96312.81;10556437;28;2032;-67
2024/01/09 03:55:46;;;;;;;;;;;;;;;-7.25;100.00;96312.53;10536162;28;2317;-69
2024/01/09 04:00:49;;;;;;;;;;;;;;;-7.20;100.00;96315.47;10558071;28;2314;-68
2024/01/09 04:05:52;;;;;;;;;;;;;;;-7.28;100.00;96318.03;10556460;28;2305;-66
2024/01/09 04:10:54;;;;;;;;;;;;;;;-7.19;100.00;96317.16;10558950;28;1993;-66
2024/01/09 04:15:57;;;;;;;;;;;;;;;-7.29;100.00;96316.41;10557022;28;1876;-68
2024/01/09 04:20:59;;;;;;;;;;;;;;;-7.23;100.00;96314.97;10550452;28;1936;-67
2024/01/09 04:26:02;;;;;;;;;;;;;;;-7.31;100.00;96313.13;10556675;28;1924;-68
2024/01/09 04:31:04;;;;;;;;;;;;;;;-7.32;100.00;96316.69;10551940;28;2026;-66
2024/01/09 04:36:07;;;;;;;;;;;;;;;-7.40;100.00;96319.22;10554061;28;1925;-68
2024/01/09 04:41:09;;;;;;;;;;;;;;;-7.44;100.00;96318.72;10556472;28;2056;-67
2024/01/09 04:46:12;;;;;;;;;;;;;;;-7.45;100.00;96317.06;10557533;27;2065;-68
2024/01/09 04:51:15;;;;;;;;;;;;;;;-7.49;100.00;96313.13;10551352;28;2437;-69
2024/01/09 04:56:18;;;;;;;;;;;;;;;-7.51;100.00;96322.88;10549176;28;2022;-66
2024/01/09 05:01:21;;;;;;;;;;;;;;;-7.68;100.00;96332.34;10550276;28;1859;-65
2024/01/09 05:06:23;;;;;;;;;;;;;;;-7.62;100.00;96310.88;10555711;28;1872;-66
2024/01/09 05:11:26;;;;;;;;;;;;;;;-7.63;100.00;96330.13;10553248;28;1981;-72
2024/01/09 05:16:28;;;;;;;;;;;;;;;-7.70;100.00;96331.69;10557321;27;1919;-66
2024/01/09 05:21:31;;;;;;;;;;;;;;;-7.77;100.00;96338.44;10560690;28;2003;-65
2024/01/09 05:26:33;;;;;;;;;;;;;;;-7.79;100.00;96323.88;10564384;28;2002;-66
2024/01/09 05:31:36;;;;;;;;;;;;;;;-7.73;100.00;96350.22;10560037;28;2452;-66
2024/01/09 05:36:39;;;;;;;;;;;;;;;-7.70;100.00;96344.72;10558327;28;2144;-66
2024/01/09 05:41:42;;;;;;;;;;;;;;;-7.69;100.00;96335.94;10560116;28;1936;-69
2024/01/09 05:46:45;;;;;;;;;;;;;;;-7.77;100.00;96332.38;10557757;28;2025;-67
2024/01/09 05:51:48;;;;;;;;;;;;;;;-7.86;100.00;96341.94;10565879;27;1974;-74
2024/01/09 05:56:51;;;;;;;;;;;;;;;-7.91;100.00;96351.97;10539784;27;1924;-66
2024/01/09 06:01:54;;;;;;;;;;;;;;;-7.91;100.00;96344.13;10554373;28;1932;-71
2024/01/09 06:06:58;;;;;;;;;;;;;;;-7.92;100.00;96352.94;10557044;28;2052;-75
2024/01/09 06:12:00;;;;;;;;;;;;;;;-7.90;100.00;96354.44;10566183;28;1945;-71
2024/01/09 06:17:03;;;;;;;;;;;;;;;-7.93;100.00;96348.69;10556112;28;2152;-74
2024/01/09 06:22:06;;;;;;;;;;;;;;;-7.79;100.00;96358.63;10558055;28;2037;-65
2024/01/09 06:27:08;;;;;;;;;;;;;;;-7.62;100.00;96351.81;10552429;28;2269;-65
2024/01/09 06:32:11;;;;;;;;;;;;;;;-7.77;100.00;96354.09;10548718;28;1917;-66
2024/01/09 06:37:14;;;;;;;;;;;;;;;-7.84;100.00;96358.25;10548058;28;2175;-70
2024/01/09 06:42:17;;;;;;;;;;;;;;;-7.71;100.00;96373.56;10542334;28;2002;-66
2024/01/09 06:47:20;;;;;;;;;;;;;;;-7.86;100.00;96373.25;10546924;27;2111;-66
2024/01/09 06:52:23;;;;;;;;;;;;;;;-7.88;100.00;96377.78;10551321;28;2037;-66
2024/01/09 06:57:25;;;;;;;;;;;;;;;-7.97;100.00;96378.63;10560570;27;2226;-67
2024/01/09 07:02:30;;;;;;;;;;;;;;;-7.94;100.00;96380.97;10561006;28;2137;-67
2024/01/09 07:07:33;;;;;;;;;;;;;;;-7.84;100.00;96383.53;10557218;27;1921;-66
2024/01/09 07:12:47;;;;;;;;;;;;;;;-7.92;100.00;96384.25;10558506;28;1960;-64
2024/01/09 07:17:49;;;;;;;;;;;;;;;-8.04;100.00;96393.22;10558825;28;2414;-67
2024/01/09 07:22:52;;;;;;;;;;;;;;;-8.00;100.00;96382.38;10552886;28;2052;-67
2024/01/09 07:28:11;;;;;;;;;;;;;;;-7.93;100.00;96395.66;10561155;28;3123;-66
2024/01/09 07:33:14;;;;;;;;;;;;;;;-8.03;100.00;96393.09;10551134;28;2245;-67
2024/01/09 07:38:22;;;;;;;;;;;;;;;-7.98;100.00;96400.50;10555777;28;2184;-68
2024/01/09 07:43:25;;;;;;;;;;;;;;;-8.22;100.00;96403.59;10558297;27;1908;-67
2024/01/09 07:48:28;;;;;;;;;;;;;;;-8.24;100.00;96408.13;10560974;28;2123;-66
2024/01/09 07:53:31;;;;;;;;;;;;;;;-8.16;100.00;96421.28;10550524;28;1963;-65
2024/01/09 07:58:36;;;;;;;;;;;;;;;-8.23;100.00;96420.19;10549946;28;1937;-66
2024/01/09 08:03:40;;;;;;;;;;;;;;;-8.24;100.00;96427.22;10551808;28;1897;-66
2024/01/09 08:08:43;;;;;;;;;;;;;;;-8.22;100.00;96421.84;10552122;28;1984;-67
2024/01/09 08:13:50;;;;;;;;;;;;;;;-8.10;100.00;96412.88;10549783;28;2302;-67
2024/01/09 08:18:52;;;;;;;;;;;;;;;-8.04;100.00;96424.53;10547851;28;2246;-66
2024/01/09 08:23:55;;;;;;;;;;;;;;;-8.10;100.00;96425.09;10551758;27;1887;-67
2024/01/09 08:28:59;;;;;;;;;;;;;;;-8.13;100.00;96435.84;10548152;28;1974;-65
2024/01/09 08:34:02;;;;;;;;;;;;;;;-8.02;100.00;96446.91;10534201;28;2135;-67
2024/01/09 08:39:07;;;;;;;;;;;;;;;-8.10;100.00;96427.72;10528111;28;2113;-66
2024/01/09 08:44:10;;;;;;;;;;;;;;;-8.02;100.00;96439.06;10529167;28;2360;-66
2024/01/09 08:49:13;;;;;;;;;;;;;;;-7.94;100.00;96435.78;10547111;28;1971;-67
2024/01/09 08:54:16;;;;;;;;;;;;;;;-7.84;100.00;96436.53;10548596;28;2148;-67
2024/01/09 08:59:20;;;;;;;;;;;;;;;-7.78;100.00;96435.97;10529213;28;2127;-67
2024/01/09 09:04:27;;;;;;;;;;;;;;;-7.99;100.00;96449.25;10536566;28;2015;-66
2024/01/09 09:09:33;;;;;;;;;;;;;;;-7.98;100.00;96437.00;10547979;28;2780;-68
2024/01/09 09:14:36;;;;;;;;;;;;;;;-8.07;100.00;96446.53;10549573;28;1934;-67
2024/01/09 09:19:39;;;;;;;;;;;;;;;-7.94;100.00;96435.78;10554312;28;2022;-67
2024/01/09 09:24:43;;;;;;;;;;;;;;;-7.55;100.00;96438.22;10556895;28;2006;-65
2024/01/09 09:29:45;;;;;;;;;;;;;;;-7.38;100.00;96446.09;10552224;28;1956;-69
2024/01/09 09:34:48;;;;;;;;;;;;;;;-7.40;100.00;96445.41;10528602;28;2044;-66
2024/01/09 09:39:53;;;;;;;;;;;;;;;-7.55;100.00;96444.25;10548080;28;2120;-64
2024/01/09 09:44:56;;;;;;;;;;;;;;;-7.49;100.00;96442.88;10555893;28;2116;-65
2024/01/09 09:49:59;;;;;;;;;;;;;;;-7.54;100.00;96447.69;10535080;28;2842;-67
2024/01/09 09:55:02;;;;;;;;;;;;;;;-7.72;100.00;96450.25;10541957;28;2101;-69
2024/01/09 10:00:04;;;;;;;;;;;;;;;-7.66;100.00;96445.25;10565587;28;1931;-65
2024/01/09 10:05:10;;;;;;;;;;;;;;;-7.42;100.00;96446.53;10567205;28;1964;-65
2024/01/09 10:10:13;;;;;;;;;;;;;;;-7.13;100.00;96451.56;10561601;28;2278;-65
2024/01/09 10:15:17;;;;;;;;;;;;;;;-7.13;100.00;96436.72;10554403;28;2136;-67
2024/01/09 10:20:20;;;;;;;;;;;;;;;-7.16;100.00;96426.56;10553607;27;2084;-66
2024/01/09 10:25:28;;;;;;;;;;;;;;;-6.94;100.00;96438.38;10560823;27;1989;-69
2024/01/09 10:30:31;;;;;;;;;;;;;;;-6.61;100.00;96423.81;10545724;28;2117;-66
2024/01/09 10:35:37;;;;;;;;;;;;;;;-6.66;100.00;96423.44;10552785;28;2775;-67
2024/01/09 10:40:40;;;;;;;;;;;;;;;-6.55;100.00;96420.59;10568210;27;1891;-66
2024/01/09 10:45:43;;;;;;;;;;;;;;;-6.47;100.00;96416.41;10552971;28;1943;-67
2024/01/09 10:50:46;;;;;;;;;;;;;;;-6.23;100.00;96403.50;10545447;28;1984;-64
2024/01/09 10:55:49;;;;;;;;;;;;;;;-6.67;100.00;96400.06;10558046;27;2033;-65
2024/01/09 11:00:52;;;;;;;;;;;;;;;-6.44;100.00;96392.53;10547750;28;1926;-67
2024/01/09 11:05:58;;;;;;;;;;;;;;;-7.25;100.00;96403.97;10555256;27;1958;-68
2024/01/09 11:11:03;;;;;;;;;;;;;;;-7.31;100.00;96395.91;10540140;28;1926;-67
2024/01/09 11:16:05;;;;;;;;;;;;;;;-7.11;100.00;96398.22;10559677;28;2799;-66
2024/01/09 11:21:09;;;;;;;;;;;;;;;-7.17;100.00;96393.59;10562753;28;2073;-65
2024/01/09 11:26:12;;;;;;;;;;;;;;;-7.29;100.00;96389.53;10554709;28;2060;-64
2024/01/09 11:31:17;;;;;;;;;;;;;;;-7.04;100.00;96382.75;10558000;28;2197;-66
2024/01/09 11:36:19;;;;;;;;;;;;;;;-7.21;100.00;96375.72;10553317;27;2265;-65
2024/01/09 11:41:22;;;;;;;;;;;;;;;-7.27;100.00;96377.13;10556380;28;2119;-67
2024/01/09 11:46:26;;;;;;;;;;;;;;;-7.16;100.00;96363.88;10555546;28;1929;-69
2024/01/09 11:51:30;;;;;;;;;;;;;;;-6.79;100.00;96360.25;10557654;28;2227;-72
2024/01/09 11:56:32;;;;;;;;;;;;;;;-6.72;100.00;96370.94;10553915;28;1976;-66
2024/01/09 12:01:35;;;;;;;;;;;;;;;-6.80;100.00;96361.25;10537128;28;2840;-68
2024/01/09 12:06:38;;;;;;;;;;;;;;;-6.67;100.00;96359.06;10552550;28;2129;-67
2024/01/09 12:11:45;;;;;;;;;;;;;;;-6.75;100.00;96360.75;10546831;28;2215;-69
2024/01/09 12:16:51;;;;;;;;;;;;;;;-6.77;100.00;96347.03;10555639;28;2099;-66
2024/01/09 12:21:53;;;;;;;;;;;;;;;-6.81;100.00;96347.34;10550891;28;1989;-65
2024/01/09 12:26:56;;;;;;;;;;;;;;;-6.78;100.00;96345.41;10549268;28;1927;-66
2024/01/09 12:31:58;;;;;;;;;;;;;;;-6.54;100.00;96342.97;10551804;27;1983;-67
2024/01/09 12:37:05;;;;;;;;;;;;;;;-6.41;100.00;96332.09;10547219;27;1993;-69
2024/01/09 12:42:08;;;;;;;;;;;;;;;-6.47;100.00;96327.47;10552659;28;2231;-68
2024/01/09 12:47:11;;;;;;;;;;;;;;;-6.45;100.00;96336.78;10556671;28;3072;-65
2024/01/09 12:52:13;;;;;;;;;;;;;;;-6.53;100.00;96327.09;10552560;28;2057;-72
2024/01/09 12:57:17;;;;;;;;;;;;;;;-6.57;100.00;96332.78;10553262;28;1899;-70
2024/01/09 13:02:20;;;;;;;;;;;;;;;-6.55;100.00;96331.69;10555047;28;2124;-72
2024/01/09 13:07:23;;;;;;;;;;;;;;;-6.43;100.00;96329.59;10548589;28;2245;-71
2024/01/09 13:12:27;;;;;;;;;;;;;;;-6.39;100.00;96320.47;10551677;28;1982;-68
2024/01/09 13:17:30;;;;;;;;;;;;;;;-6.42;100.00;96320.81;10529399;28;2202;-66
2024/01/09 13:22:32;;;;;;;;;;;;;;;-6.46;100.00;96323.88;10549951;28;2264;-67
2024/01/09 13:27:39;;;;;;;;;;;;;;;-6.24;100.00;96312.88;10544821;28;2221;-68
2024/01/09 13:32:42;;;;;;;;;;;;;;;-6.27;100.00;96313.19;10553085;27;2449;-66
2024/01/09 13:37:45;;;;;;;;;;;;;;;-6.15;100.00;96311.94;10579825;27;2100;-66
2024/01/09 13:42:47;;;;;;;;;;;;;;;-6.25;100.00;96308.59;10564320;27;2049;-66
2024/01/09 13:47:50;;;;;;;;;;;;;;;-6.26;100.00;96320.06;10562872;28;1903;-73
2024/01/09 13:52:53;;;;;;;;;;;;;;;-6.22;100.00;96315.34;10566144;28;2317;-66
2024/01/09 13:57:56;;;;;;;;;;;;;;;-6.16;100.00;96314.72;10560154;28;2455;-67
2024/01/09 14:02:59;;;;;;;;;;;;;;;-6.02;100.00;96317.56;10566141;28;1986;-67
2024/01/09 14:08:04;;;;;;;;;;;;;;;-6.05;100.00;96317.03;10552155;27;2015;-66
2024/01/09 14:13:07;;;;;;;;;;;;;;;-6.03;100.00;96310.69;10557423;27;2005;-69
2024/01/09 14:18:13;;;;;;;;;;;;;;;-6.20;100.00;96298.50;10565550;27;2236;-73
2024/01/09 14:23:17;;;;;;;;;;;;;;;-6.17;100.00;96298.22;10565041;27;2300;-75
2024/01/09 14:28:22;;;;;;;;;;;;;;;-6.13;100.00;96303.94;10543808;28;1934;-68
2024/01/09 14:33:26;;;;;;;;;;;;;;;-6.01;100.00;96305.28;10542520;27;1993;-69
2024/01/09 14:38:29;;;;;;;;;;;;;;;-6.02;100.00;96301.84;10554182;28;2016;-69
2024/01/09 14:43:33;;;;;;;;;;;;;;;-6.11;100.00;96296.72;10560175;27;2245;-73
2024/01/09 14:48:36;;;;;;;;;;;;;;;-6.15;100.00;96301.47;10550630;28;1966;-70
2024/01/09 14:53:39;;;;;;;;;;;;;;;-6.14;100.00;96303.09;10549637;28;2178;-72
2024/01/09 14:58:41;;;;;;;;;;;;;;;-6.16;100.00;96306.88;10556391;28;1880;-76
2024/01/09 15:03:45;;;;;;;;;;;;;;;-6.18;100.00;96307.00;10538540;28;2175;-73
2024/01/09 15:08:48;;;;;;;;;;;;;;;-6.26;100.00;96314.81;10549839;28;1995;-73
2024/01/09 15:13:50;;;;;;;;;;;;;;;-6.33;100.00;96313.81;10556073;28;2215;-67
2024/01/09 15:18:53;;;;;;;;;;;;;;;-6.36;100.00;96314.94;10554913;27;2033;-70
2024/01/09 15:23:55;;;;;;;;;;;;;;;-6.44;100.00;96311.44;10551584;28;1925;-76
2024/01/09 15:28:58;;;;;;;;;;;;;;;-6.50;100.00;96309.44;10555086;27;2420;-71
2024/01/09 15:34:00;;;;;;;;;;;;;;;-6.51;100.00;96324.34;10554308;27;1980;-68
2024/01/09 15:39:04;;;;;;;;;;;;;;;-6.60;100.00;96313.00;10555930;28;1968;-69
2024/01/09 15:44:07;;;;;;;;;;;;;;;-6.67;100.00;96317.22;10554597;28;2040;-66
2024/01/09 15:49:12;;;;;;;;;;;;;;;-6.70;100.00;96317.50;10553092;28;2016;-68
2024/01/09 15:54:15;;;;;;;;;;;;;;;-6.77;100.00;96319.09;10556872;28;2108;-67
2024/01/09 15:59:17;;;;;;;;;;;;;;;-6.79;100.00;96323.66;10559413;28;2059;-66
2024/01/09 16:04:21;;;;;;;;;;;;;;;-6.82;100.00;96331.78;10552514;27;1938;-66
2024/01/09 16:09:24;;;;;;;;;;;;;;;-6.85;100.00;96327.72;10541234;28;2521;-67
2024/01/09 16:14:28;;;;;;;;;;;;;;;-6.89;100.00;96334.19;10556751;28;1909;-66
2024/01/09 16:19:31;;;;;;;;;;;;;;;-6.94;100.00;96335.63;10555451;28;2170;-66
2024/01/09 16:24:34;;;;;;;;;;;;;;;-6.93;100.00;96342.50;10554839;28;1916;-67
2024/01/09 16:29:37;;;;;;;;;;;;;;;-6.93;100.00;96347.75;10552411;28;1929;-67
2024/01/09 16:34:40;;;;;;;;;;;;;;;-6.90;100.00;96355.25;10539142;28;2076;-67
2024/01/09 16:39:45;;;;;;;;;;;;;;;-6.88;100.00;96358.53;10556179;28;2132;-66
2024/01/09 16:44:48;;;;;;;;;;;;;;;-6.86;100.00;96361.84;10557480;28;2233;-68
2024/01/09 16:49:51;;;;;;;;;;;;;;;-6.95;100.00;96370.56;10557079;28;1898;-69
2024/01/09 16:54:55;;;;;;;;;;;;;;;-6.92;100.00;96371.09;10549377;28;2128;-66
2024/01/09 16:59:57;;;;;;;;;;;;;;;-6.92;100.00;96365.88;10561107;28;2574;-66
2024/01/09 17:05:01;;;;;;;;;;;;;;;-6.92;100.00;96359.84;10552871;28;1944;-65
2024/01/09 17:10:04;;;;;;;;;;;;;;;-6.90;100.00;96352.66;10554855;28;1898;-66
2024/01/09 17:15:07;;;;;;;;;;;;;;;-6.90;100.00;96361.31;10568831;28;1988;-66
2024/01/09 17:20:12;;;;;;;;;;;;;;;-7.01;100.00;96348.47;10566249;28;1948;-67
2024/01/09 17:25:18;;;;;;;;;;;;;;;-6.94;100.00;96353.91;10538256;28;2015;-65
2024/01/09 17:35:45;;;;;;;;;;;;;;;-6.95;100.00;96357.50;10570590;28;1910;-69
2024/01/09 17:40:48;;;;;;;;;;;;;;;-6.96;100.00;96350.63;10569677;28;2443;-67
2024/01/09 17:45:54;;;;;;;;;;;;;;;-7.01;100.00;96351.09;10568610;27;2068;-66
2024/01/09 17:50:57;;;;;;;;;;;;;;;-7.02;100.00;96356.47;10564424;27;1898;-66
2024/01/09 17:56:01;;;;;;;;;;;;;;;-7.09;100.00;96354.47;10564761;28;2030;-66
2024/01/09 18:01:07;;;;;;;;;;;;;;;-7.13;100.00;96347.06;10557901;28;1860;-66
2024/01/09 18:06:10;;;;;;;;;;;;;;;-7.11;100.00;96350.38;10564854;27;1897;-70
2024/01/09 18:11:13;;;;;;;;;;;;;;;-7.12;100.00;96349.53;10560077;27;2061;-64
2024/01/09 18:16:15;;;;;;;;;;;;;;;-7.11;100.00;96340.72;10558130;28;2269;-67
2024/01/09 18:21:18;;;;;;;;;;;;;;;-7.13;100.00;96342.66;10558621;28;2036;-65
2024/01/09 18:26:22;;;;;;;;;;;;;;;-7.07;100.00;96336.81;10561314;28;2046;-65
2024/01/09 18:31:28;;;;;;;;;;;;;;;-7.11;100.00;96353.78;10553215;28;2426;-65
2024/01/09 18:36:30;;;;;;;;;;;;;;;-7.19;100.00;96348.50;10562421;28;2070;-65
2024/01/09 18:41:33;;;;;;;;;;;;;;;-7.21;100.00;96355.66;10566451;28;1867;-66
2024/01/09 18:46:36;;;;;;;;;;;;;;;-7.20;100.00;96352.06;10567623;27;1676;-67
2024/01/09 18:51:39;;;;;;;;;;;;;;;-7.24;100.00;96350.75;10553297;28;1907;-65
2024/01/09 18:56:42;;;;;;;;;;;;;;;-7.30;100.00;96350.50;10570715;27;1851;-65
2024/01/09 19:01:50;;;;;;;;;;;;;;;-7.32;100.00;96353.25;10551174;28;1615;-66
2024/01/09 19:06:53;;;;;;;;;;;;;;;-7.26;100.00;96344.81;10567570;27;1580;-67
2024/01/09 19:11:56;;;;;;;;;;;;;;;-7.36;100.00;96351.91;10570202;28;2550;-66
2024/01/09 19:16:59;;;;;;;;;;;;;;;-7.33;100.00;96343.78;10565250;28;2034;-67
2024/01/09 19:22:02;;;;;;;;;;;;;;;-7.30;100.00;96359.16;10565400;28;1517;-67
2024/01/09 19:27:07;;;;;;;;;;;;;;;-7.28;100.00;96349.38;10565979;28;1621;-66
2024/01/09 19:32:13;;;;;;;;;;;;;;;-7.32;100.00;96342.81;10568716;28;1913;-65
2024/01/09 19:37:16;;;;;;;;;;;;;;;-7.37;100.00;96342.44;10563951;28;1475;-72
2024/01/09 19:42:19;;;;;;;;;;;;;;;-7.31;100.00;96348.88;10569512;28;1923;-73
2024/01/09 19:47:23;;;;;;;;;;;;;;;-7.27;100.00;96351.03;10562710;28;1486;-68
2024/01/09 19:52:28;;;;;;;;;;;;;;;-7.26;100.00;96352.66;10565739;28;2034;-72
2024/01/09 19:57:31;;;;;;;;;;;;;;;-7.27;100.00;96361.47;10551031;28;2561;-65
2024/01/09 20:02:35;;;;;;;;;;;;;;;-7.36;100.00;96352.75;10560389;27;1965;-66
2024/01/09 20:07:40;;;;;;;;;;;;;;;-7.33;100.00;96362.06;10559739;28;1883;-66
2024/01/09 20:12:45;;;;;;;;;;;;;;;-7.44;100.00;96370.13;10560061;28;1986;-67
2024/01/09 20:17:48;;;;;;;;;;;;;;;-7.51;100.00;96369.06;10545019;28;1901;-66
2024/01/09 20:22:56;;;;;;;;;;;;;;;-7.51;100.00;96364.66;10558028;28;1916;-68
2024/01/09 20:27:59;;;;;;;;;;;;;;;-7.49;100.00;96364.53;10554520;28;1884;-63
2024/01/09 20:33:02;;;;;;;;;;;;;;;-7.35;100.00;96361.41;10558561;27;1914;-66
2024/01/09 20:38:05;;;;;;;;;;;;;;;-7.18;100.00;96355.38;10558969;28;1913;-65
2024/01/09 20:43:09;;;;;;;;;;;;;;;-7.28;100.00;96353.78;10555316;28;2493;-64
2024/01/09 20:48:12;;;;;;;;;;;;;;;-7.29;100.00;96347.75;10559198;28;2306;-68
2024/01/09 20:53:18;;;;;;;;;;;;;;;-7.23;100.00;96352.38;10553120;28;1973;-71
2024/01/09 20:58:22;;;;;;;;;;;;;;;-7.32;100.00;96358.47;10534010;28;2206;-66
2024/01/09 21:03:27;;;;;;;;;;;;;;;-7.40;100.00;96364.44;10552974;28;1913;-66
2024/01/09 21:08:32;;;;;;;;;;;;;;;-7.44;100.00;96365.72;10555208;28;2053;-65
2024/01/09 21:13:35;;;;;;;;;;;;;;;-7.52;100.00;96373.47;10557723;28;1966;-65
2024/01/09 21:18:38;;;;;;;;;;;;;;;-7.43;100.00;96377.81;10554202;28;1935;-66
2024/01/09 21:23:42;;;;;;;;;;;;;;;-7.52;100.00;96370.03;10550685;28;2085;-69
2024/01/09 21:28:45;;;;;;;;;;;;;;;-7.57;100.00;96365.25;10557641;28;1915;-65
2024/01/09 21:33:47;;;;;;;;;;;;;;;-7.55;100.00;96357.28;10556482;28;2487;-65
2024/01/09 21:38:50;;;;;;;;;;;;;;;-7.65;100.00;96360.75;10556720;28;2710;-66
2024/01/09 21:43:55;;;;;;;;;;;;;;;-7.73;100.00;96365.88;10552927;28;2049;-67
2024/01/09 21:48:58;;;;;;;;;;;;;;;-7.85;100.00;96371.44;10553990;28;2144;-64
2024/01/09 21:54:03;;;;;;;;;;;;;;;-7.90;100.00;96374.47;10555692;28;2009;-65
2024/01/09 21:59:08;;;;;;;;;;;;;;;-7.96;100.00;96375.06;10560288;28;1880;-67
2024/01/09 22:04:11;;;;;;;;;;;;;;;-8.00;100.00;96368.50;10561720;28;2002;-68
2024/01/09 22:09:14;;;;;;;;;;;;;;;-7.96;100.00;96364.63;10558707;27;2056;-66
2024/01/09 22:14:16;;;;;;;;;;;;;;;-8.02;100.00;96371.25;10557702;28;2093;-65
2024/01/09 22:19:20;;;;;;;;;;;;;;;-8.00;100.00;96369.31;10560165;27;2833;-65
2024/01/09 22:24:23;;;;;;;;;;;;;;;-8.02;100.00;96373.84;10555359;27;2215;-67
2024/01/09 22:29:27;;;;;;;;;;;;;;;-8.02;100.00;96375.63;10545319;28;2325;-68
2024/01/09 22:34:29;;;;;;;;;;;;;;;-8.02;100.00;96378.25;10547113;28;1973;-67
2024/01/09 22:39:32;;;;;;;;;;;;;;;-7.93;100.00;96370.38;10567606;28;1838;-68
2024/01/09 22:44:36;;;;;;;;;;;;;;;-7.69;100.00;96382.91;10543224;28;2193;-65
2024/01/09 22:49:39;;;;;;;;;;;;;;;-7.41;100.00;96375.88;10542117;28;2053;-65
2024/01/09 22:54:47;;;;;;;;;;;;;;;-7.31;100.00;96365.38;10550896;28;2368;-65
2024/01/09 22:59:50;;;;;;;;;;;;;;;-7.12;100.00;96364.41;10559530;27;1918;-65
2024/01/09 23:04:53;;;;;;;;;;;;;;;-7.04;100.00;96374.09;10559692;28;1986;-65
2024/01/09 23:09:56;;;;;;;;;;;;;;;-6.97;100.00;96372.53;10566325;28;1928;-66
2024/01/09 23:15:00;;;;;;;;;;;;;;;-6.97;100.00;96364.69;10541251;28;1993;-65
2024/01/09 23:20:03;;;;;;;;;;;;;;;-6.94;100.00;96356.53;10551542;27;2699;-64
2024/01/09 23:25:06;;;;;;;;;;;;;;;-6.91;100.00;96351.00;10547857;28;3523;-66
2024/01/09 23:30:10;;;;;;;;;;;;;;;-6.92;100.00;96349.38;10547018;28;2061;-65
2024/01/09 23:35:13;;;;;;;;;;;;;;;-6.91;100.00;96351.00;10552350;27;2096;-65
2024/01/09 23:40:16;;;;;;;;;;;;;;;-6.84;100.00;96352.03;10557820;28;2010;-65
2024/01/09 23:45:18;;;;;;;;;;;;;;;-7.00;100.00;96341.44;10553281;28;2045;-66
2024/01/09 23:50:23;;;;;;;;;;;;;;;-7.13;100.00;96342.66;10552993;28;2066;-65
2024/01/09 23:55:26;;;;;;;;;;;;;;;-7.13;100.00;96347.06;10551943;28;2083;-64
